sensor_id;sensor_type;location;lat;lon;timestamp;P1;durP1;ratioP1;P2;durP2;ratioP2
60935;SDS011;46804;51.786;19.520;2022-07-29T00:01:49;4.28;;;1.90;;
60935;SDS011;46804;51.786;19.520;2022-07-29T00:05:50;4.82;;;2.22;;
60935;SDS011;46804;51.786;19.520;2022-07-29T00:09:53;8.60;;;2.10;;
60935;SDS011;46804;51.786;19.520;2022-07-29T00:13:53;3.17;;;1.73;;
60935;SDS011;46804;51.786;19.520;2022-07-29T00:17:54;5.47;;;2.03;;
60935;SDS011;46804;51.786;19.520;2022-07-29T00:21:54;4.15;;;1.65;;
60935;SDS011;46804;51.786;19.520;2022-07-29T00:25:55;5.07;;;2.05;;
60935;SDS011;46804;51.786;19.520;2022-07-29T00:29:55;6.70;;;2.13;;
60935;SDS011;46804;51.786;19.520;2022-07-29T00:33:56;4.47;;;2.03;;
60935;SDS011;46804;51.786;19.520;2022-07-29T00:37:56;8.80;;;2.80;;
60935;SDS011;46804;51.786;19.520;2022-07-29T00:41:57;8.52;;;2.08;;
60935;SDS011;46804;51.786;19.520;2022-07-29T00:45:57;3.72;;;1.65;;
60935;SDS011;46804;51.786;19.520;2022-07-29T00:49:58;4.53;;;1.77;;
60935;SDS011;46804;51.786;19.520;2022-07-29T00:53:58;4.15;;;2.17;;
60935;SDS011;46804;51.786;19.520;2022-07-29T00:57:59;6.22;;;2.50;;
60935;SDS011;46804;51.786;19.520;2022-07-29T01:02:00;5.47;;;2.42;;
60935;SDS011;46804;51.786;19.520;2022-07-29T01:06:00;6.13;;;2.90;;
60935;SDS011;46804;51.786;19.520;2022-07-29T01:10:04;6.90;;;2.50;;
60935;SDS011;46804;51.786;19.520;2022-07-29T01:14:07;2.95;;;1.90;;
60935;SDS011;46804;51.786;19.520;2022-07-29T01:27:09;6.47;;;2.10;;
60935;SDS011;46804;51.786;19.520;2022-07-29T01:32:06;3.80;;;2.28;;
60935;SDS011;46804;51.786;19.520;2022-07-29T01:35:52;4.38;;;2.42;;
60935;SDS011;46804;51.786;19.520;2022-07-29T01:39:54;5.40;;;2.35;;
60935;SDS011;46804;51.786;19.520;2022-07-29T01:43:57;5.90;;;2.15;;
60935;SDS011;46804;51.786;19.520;2022-07-29T01:48:21;4.22;;;2.00;;
60935;SDS011;46804;51.786;19.520;2022-07-29T01:52:28;5.35;;;2.35;;
60935;SDS011;46804;51.786;19.520;2022-07-29T01:56:33;7.25;;;2.50;;
60935;SDS011;46804;51.786;19.520;2022-07-29T02:00:36;6.70;;;2.30;;
60935;SDS011;46804;51.786;19.520;2022-07-29T02:04:39;8.52;;;2.20;;
60935;SDS011;46804;51.786;19.520;2022-07-29T02:08:41;5.40;;;2.15;;
60935;SDS011;46804;51.786;19.520;2022-07-29T02:12:43;4.43;;;2.38;;
60935;SDS011;46804;51.786;19.520;2022-07-29T02:16:46;4.63;;;2.17;;
60935;SDS011;46804;51.786;19.520;2022-07-29T02:20:50;4.50;;;2.22;;
60935;SDS011;46804;51.786;19.520;2022-07-29T02:24:54;5.90;;;2.00;;
60935;SDS011;46804;51.786;19.520;2022-07-29T02:28:56;7.88;;;2.53;;
60935;SDS011;46804;51.786;19.520;2022-07-29T02:32:58;3.30;;;1.95;;
60935;SDS011;46804;51.786;19.520;2022-07-29T02:36:59;4.70;;;2.03;;
60935;SDS011;46804;51.786;19.520;2022-07-29T02:41:04;5.00;;;1.90;;
60935;SDS011;46804;51.786;19.520;2022-07-29T02:45:09;3.55;;;1.90;;
60935;SDS011;46804;51.786;19.520;2022-07-29T02:53:26;5.70;;;2.10;;
60935;SDS011;46804;51.786;19.520;2022-07-29T03:01:36;4.78;;;2.22;;
60935;SDS011;46804;51.786;19.520;2022-07-29T03:05:40;3.17;;;2.00;;
60935;SDS011;46804;51.786;19.520;2022-07-29T03:09:41;4.03;;;2.20;;
60935;SDS011;46804;51.786;19.520;2022-07-29T03:13:43;4.07;;;2.28;;
60935;SDS011;46804;51.786;19.520;2022-07-29T03:17:44;3.50;;;2.28;;
60935;SDS011;46804;51.786;19.520;2022-07-29T03:21:45;7.30;;;2.25;;
60935;SDS011;46804;51.786;19.520;2022-07-29T03:25:46;3.88;;;1.92;;
60935;SDS011;46804;51.786;19.520;2022-07-29T03:29:47;7.40;;;2.33;;
60935;SDS011;46804;51.786;19.520;2022-07-29T03:33:47;7.68;;;2.17;;
60935;SDS011;46804;51.786;19.520;2022-07-29T03:37:48;5.97;;;2.40;;
60935;SDS011;46804;51.786;19.520;2022-07-29T03:41:50;5.03;;;2.10;;
60935;SDS011;46804;51.786;19.520;2022-07-29T03:45:53;4.18;;;2.20;;
60935;SDS011;46804;51.786;19.520;2022-07-29T03:49:56;3.53;;;2.40;;
60935;SDS011;46804;51.786;19.520;2022-07-29T03:54:01;5.93;;;2.53;;
60935;SDS011;46804;51.786;19.520;2022-07-29T03:58:02;5.57;;;2.53;;
60935;SDS011;46804;51.786;19.520;2022-07-29T04:02:04;3.90;;;2.30;;
60935;SDS011;46804;51.786;19.520;2022-07-29T04:06:06;4.82;;;2.45;;
60935;SDS011;46804;51.786;19.520;2022-07-29T04:10:07;8.35;;;2.38;;
60935;SDS011;46804;51.786;19.520;2022-07-29T04:14:08;5.97;;;2.50;;
60935;SDS011;46804;51.786;19.520;2022-07-29T04:18:09;6.60;;;2.67;;
60935;SDS011;46804;51.786;19.520;2022-07-29T04:22:10;9.35;;;3.08;;
60935;SDS011;46804;51.786;19.520;2022-07-29T04:26:11;4.40;;;3.13;;
60935;SDS011;46804;51.786;19.520;2022-07-29T04:30:11;6.20;;;3.05;;
60935;SDS011;46804;51.786;19.520;2022-07-29T04:34:12;6.63;;;3.00;;
60935;SDS011;46804;51.786;19.520;2022-07-29T04:38:13;7.43;;;3.25;;
60935;SDS011;46804;51.786;19.520;2022-07-29T04:42:13;8.13;;;3.30;;
60935;SDS011;46804;51.786;19.520;2022-07-29T04:46:14;6.00;;;3.30;;
60935;SDS011;46804;51.786;19.520;2022-07-29T04:50:15;7.25;;;3.58;;
60935;SDS011;46804;51.786;19.520;2022-07-29T04:54:15;7.85;;;3.50;;
60935;SDS011;46804;51.786;19.520;2022-07-29T04:58:16;7.82;;;3.72;;
60935;SDS011;46804;51.786;19.520;2022-07-29T05:02:16;8.27;;;3.63;;
60935;SDS011;46804;51.786;19.520;2022-07-29T05:06:17;8.70;;;4.13;;
60935;SDS011;46804;51.786;19.520;2022-07-29T05:10:17;8.52;;;3.33;;
60935;SDS011;46804;51.786;19.520;2022-07-29T05:14:18;8.38;;;4.38;;
60935;SDS011;46804;51.786;19.520;2022-07-29T05:18:18;7.30;;;3.88;;
60935;SDS011;46804;51.786;19.520;2022-07-29T05:22:19;7.10;;;3.75;;
60935;SDS011;46804;51.786;19.520;2022-07-29T05:26:20;7.57;;;3.63;;
60935;SDS011;46804;51.786;19.520;2022-07-29T05:30:21;6.88;;;3.30;;
60935;SDS011;46804;51.786;19.520;2022-07-29T05:34:22;8.15;;;3.30;;
60935;SDS011;46804;51.786;19.520;2022-07-29T05:38:22;6.65;;;3.38;;
60935;SDS011;46804;51.786;19.520;2022-07-29T05:42:23;9.15;;;3.13;;
60935;SDS011;46804;51.786;19.520;2022-07-29T05:46:25;8.70;;;3.63;;
60935;SDS011;46804;51.786;19.520;2022-07-29T05:50:25;10.23;;;3.20;;
60935;SDS011;46804;51.786;19.520;2022-07-29T05:54:26;7.13;;;3.20;;
60935;SDS011;46804;51.786;19.520;2022-07-29T05:58:26;9.90;;;3.05;;
60935;SDS011;46804;51.786;19.520;2022-07-29T06:02:28;7.47;;;3.03;;
60935;SDS011;46804;51.786;19.520;2022-07-29T06:06:28;6.97;;;3.00;;
60935;SDS011;46804;51.786;19.520;2022-07-29T06:10:29;4.95;;;2.97;;
60935;SDS011;46804;51.786;19.520;2022-07-29T06:14:30;9.40;;;2.67;;
60935;SDS011;46804;51.786;19.520;2022-07-29T06:18:30;11.05;;;3.30;;
60935;SDS011;46804;51.786;19.520;2022-07-29T06:22:31;6.97;;;2.80;;
60935;SDS011;46804;51.786;19.520;2022-07-29T06:26:31;5.32;;;2.63;;
60935;SDS011;46804;51.786;19.520;2022-07-29T06:30:32;5.10;;;2.40;;
60935;SDS011;46804;51.786;19.520;2022-07-29T06:34:33;4.18;;;2.10;;
60935;SDS011;46804;51.786;19.520;2022-07-29T06:38:33;3.45;;;2.40;;
60935;SDS011;46804;51.786;19.520;2022-07-29T06:42:34;8.20;;;2.80;;
60935;SDS011;46804;51.786;19.520;2022-07-29T06:46:34;4.20;;;2.10;;
60935;SDS011;46804;51.786;19.520;2022-07-29T06:50:35;5.68;;;2.40;;
60935;SDS011;46804;51.786;19.520;2022-07-29T06:54:36;4.43;;;2.55;;
60935;SDS011;46804;51.786;19.520;2022-07-29T06:58:36;7.10;;;2.30;;
60935;SDS011;46804;51.786;19.520;2022-07-29T07:02:37;4.60;;;2.40;;
60935;SDS011;46804;51.786;19.520;2022-07-29T07:06:38;9.13;;;2.42;;
60935;SDS011;46804;51.786;19.520;2022-07-29T07:10:38;8.90;;;3.08;;
60935;SDS011;46804;51.786;19.520;2022-07-29T07:14:39;5.28;;;2.35;;
60935;SDS011;46804;51.786;19.520;2022-07-29T07:18:41;4.93;;;2.75;;
60935;SDS011;46804;51.786;19.520;2022-07-29T07:22:41;5.70;;;2.40;;
60935;SDS011;46804;51.786;19.520;2022-07-29T07:26:42;5.85;;;2.45;;
60935;SDS011;46804;51.786;19.520;2022-07-29T07:30:44;4.97;;;2.28;;
60935;SDS011;46804;51.786;19.520;2022-07-29T07:34:45;10.55;;;2.30;;
60935;SDS011;46804;51.786;19.520;2022-07-29T07:38:45;4.32;;;2.13;;
60935;SDS011;46804;51.786;19.520;2022-07-29T07:42:46;5.30;;;2.10;;
60935;SDS011;46804;51.786;19.520;2022-07-29T07:46:46;4.28;;;1.90;;
60935;SDS011;46804;51.786;19.520;2022-07-29T07:50:47;4.57;;;2.03;;
60935;SDS011;46804;51.786;19.520;2022-07-29T07:54:49;3.75;;;1.50;;
60935;SDS011;46804;51.786;19.520;2022-07-29T07:58:50;4.65;;;1.92;;
60935;SDS011;46804;51.786;19.520;2022-07-29T08:02:50;1.85;;;1.50;;
60935;SDS011;46804;51.786;19.520;2022-07-29T08:06:51;6.38;;;1.70;;
60935;SDS011;46804;51.786;19.520;2022-07-29T08:10:54;3.67;;;1.70;;
60935;SDS011;46804;51.786;19.520;2022-07-29T08:14:57;3.83;;;1.70;;
60935;SDS011;46804;51.786;19.520;2022-07-29T08:18:58;3.25;;;1.70;;
60935;SDS011;46804;51.786;19.520;2022-07-29T08:22:58;3.65;;;1.52;;
60935;SDS011;46804;51.786;19.520;2022-07-29T08:26:59;4.28;;;1.58;;
60935;SDS011;46804;51.786;19.520;2022-07-29T08:30:59;4.93;;;1.95;;
60935;SDS011;46804;51.786;19.520;2022-07-29T08:35:00;3.13;;;1.60;;
60935;SDS011;46804;51.786;19.520;2022-07-29T08:39:02;2.50;;;1.70;;
60935;SDS011;46804;51.786;19.520;2022-07-29T08:43:04;4.00;;;1.80;;
60935;SDS011;46804;51.786;19.520;2022-07-29T08:47:06;4.05;;;1.70;;
60935;SDS011;46804;51.786;19.520;2022-07-29T08:51:06;3.65;;;1.80;;
60935;SDS011;46804;51.786;19.520;2022-07-29T08:55:08;3.05;;;1.35;;
60935;SDS011;46804;51.786;19.520;2022-07-29T08:59:10;5.25;;;1.80;;
60935;SDS011;46804;51.786;19.520;2022-07-29T09:03:12;2.85;;;1.65;;
60935;SDS011;46804;51.786;19.520;2022-07-29T09:07:16;5.57;;;1.60;;
60935;SDS011;46804;51.786;19.520;2022-07-29T09:11:17;6.40;;;1.43;;
60935;SDS011;46804;51.786;19.520;2022-07-29T09:15:18;5.10;;;1.70;;
60935;SDS011;46804;51.786;19.520;2022-07-29T09:19:19;3.47;;;1.55;;
60935;SDS011;46804;51.786;19.520;2022-07-29T09:23:24;3.53;;;1.77;;
60935;SDS011;46804;51.786;19.520;2022-07-29T09:27:25;4.97;;;1.85;;
60935;SDS011;46804;51.786;19.520;2022-07-29T09:31:33;3.60;;;1.70;;
60935;SDS011;46804;51.786;19.520;2022-07-29T09:35:35;6.07;;;1.95;;
60935;SDS011;46804;51.786;19.520;2022-07-29T09:39:37;7.38;;;1.98;;
60935;SDS011;46804;51.786;19.520;2022-07-29T09:47:59;4.32;;;1.70;;
60935;SDS011;46804;51.786;19.520;2022-07-29T09:52:12;4.07;;;1.60;;
60935;SDS011;46804;51.786;19.520;2022-07-29T09:56:13;3.55;;;1.83;;
60935;SDS011;46804;51.786;19.520;2022-07-29T10:00:16;3.22;;;1.70;;
60935;SDS011;46804;51.786;19.520;2022-07-29T10:04:19;5.60;;;1.42;;
60935;SDS011;46804;51.786;19.520;2022-07-29T10:08:24;8.20;;;1.60;;
60935;SDS011;46804;51.786;19.520;2022-07-29T10:12:27;5.30;;;1.75;;
60935;SDS011;46804;51.786;19.520;2022-07-29T10:16:27;5.50;;;1.55;;
60935;SDS011;46804;51.786;19.520;2022-07-29T10:20:33;3.70;;;1.50;;
60935;SDS011;46804;51.786;19.520;2022-07-29T10:24:34;3.13;;;1.60;;
60935;SDS011;46804;51.786;19.520;2022-07-29T10:28:35;3.97;;;1.53;;
60935;SDS011;46804;51.786;19.520;2022-07-29T10:37:36;5.32;;;1.35;;
60935;SDS011;46804;51.786;19.520;2022-07-29T10:46:13;2.15;;;1.30;;
60935;SDS011;46804;51.786;19.520;2022-07-29T10:50:14;3.78;;;1.50;;
60935;SDS011;46804;51.786;19.520;2022-07-29T10:54:57;4.47;;;1.42;;
60935;SDS011;46804;51.786;19.520;2022-07-29T10:58:39;4.13;;;1.50;;
60935;SDS011;46804;51.786;19.520;2022-07-29T11:15:27;3.17;;;1.40;;
60935;SDS011;46804;51.786;19.520;2022-07-29T11:19:28;5.57;;;1.80;;
60935;SDS011;46804;51.786;19.520;2022-07-29T11:23:30;4.22;;;2.10;;
60935;SDS011;46804;51.786;19.520;2022-07-29T11:27:39;5.30;;;2.45;;
60935;SDS011;46804;51.786;19.520;2022-07-29T11:31:47;5.38;;;1.50;;
60935;SDS011;46804;51.786;19.520;2022-07-29T11:40:21;3.90;;;1.50;;
60935;SDS011;46804;51.786;19.520;2022-07-29T11:44:39;8.68;;;1.60;;
60935;SDS011;46804;51.786;19.520;2022-07-29T11:49:01;6.32;;;1.80;;
60935;SDS011;46804;51.786;19.520;2022-07-29T11:53:12;3.67;;;1.50;;
60935;SDS011;46804;51.786;19.520;2022-07-29T11:57:13;5.55;;;1.50;;
60935;SDS011;46804;51.786;19.520;2022-07-29T12:01:16;3.50;;;1.70;;
60935;SDS011;46804;51.786;19.520;2022-07-29T12:05:17;4.32;;;2.10;;
60935;SDS011;46804;51.786;19.520;2022-07-29T12:09:19;13.10;;;1.90;;
60935;SDS011;46804;51.786;19.520;2022-07-29T12:13:21;4.47;;;1.60;;
60935;SDS011;46804;51.786;19.520;2022-07-29T12:17:25;3.65;;;1.40;;
60935;SDS011;46804;51.786;19.520;2022-07-29T12:21:27;4.82;;;1.42;;
60935;SDS011;46804;51.786;19.520;2022-07-29T12:25:33;4.00;;;1.45;;
60935;SDS011;46804;51.786;19.520;2022-07-29T12:29:34;5.28;;;2.00;;
60935;SDS011;46804;51.786;19.520;2022-07-29T12:33:34;3.20;;;1.45;;
60935;SDS011;46804;51.786;19.520;2022-07-29T12:37:35;4.07;;;1.70;;
60935;SDS011;46804;51.786;19.520;2022-07-29T12:45:41;3.67;;;1.50;;
60935;SDS011;46804;51.786;19.520;2022-07-29T12:49:44;4.57;;;1.60;;
60935;SDS011;46804;51.786;19.520;2022-07-29T12:54:01;5.07;;;1.42;;
60935;SDS011;46804;51.786;19.520;2022-07-29T12:58:07;7.30;;;1.63;;
60935;SDS011;46804;51.786;19.520;2022-07-29T13:02:19;7.00;;;1.90;;
60935;SDS011;46804;51.786;19.520;2022-07-29T13:06:41;4.43;;;1.73;;
60935;SDS011;46804;51.786;19.520;2022-07-29T13:10:44;4.75;;;1.60;;
60935;SDS011;46804;51.786;19.520;2022-07-29T13:14:45;2.90;;;1.58;;
60935;SDS011;46804;51.786;19.520;2022-07-29T13:18:47;3.00;;;1.40;;
60935;SDS011;46804;51.786;19.520;2022-07-29T13:22:48;2.78;;;1.60;;
60935;SDS011;46804;51.786;19.520;2022-07-29T13:26:48;3.95;;;1.55;;
60935;SDS011;46804;51.786;19.520;2022-07-29T13:30:49;2.67;;;1.42;;
60935;SDS011;46804;51.786;19.520;2022-07-29T13:34:50;6.65;;;1.60;;
60935;SDS011;46804;51.786;19.520;2022-07-29T13:38:50;6.07;;;1.98;;
60935;SDS011;46804;51.786;19.520;2022-07-29T13:42:51;6.53;;;1.65;;
60935;SDS011;46804;51.786;19.520;2022-07-29T13:46:51;4.05;;;1.40;;
60935;SDS011;46804;51.786;19.520;2022-07-29T13:50:52;3.08;;;1.40;;
60935;SDS011;46804;51.786;19.520;2022-07-29T13:54:53;6.85;;;1.55;;
60935;SDS011;46804;51.786;19.520;2022-07-29T13:58:53;3.60;;;1.70;;
60935;SDS011;46804;51.786;19.520;2022-07-29T14:02:54;3.63;;;1.50;;
60935;SDS011;46804;51.786;19.520;2022-07-29T14:06:55;4.18;;;1.58;;
60935;SDS011;46804;51.786;19.520;2022-07-29T14:10:55;3.97;;;1.63;;
60935;SDS011;46804;51.786;19.520;2022-07-29T14:14:56;4.10;;;1.48;;
60935;SDS011;46804;51.786;19.520;2022-07-29T14:18:56;2.88;;;1.60;;
60935;SDS011;46804;51.786;19.520;2022-07-29T14:22:57;2.78;;;1.40;;
60935;SDS011;46804;51.786;19.520;2022-07-29T14:26:58;4.10;;;1.90;;
60935;SDS011;46804;51.786;19.520;2022-07-29T14:30:58;2.55;;;1.60;;
60935;SDS011;46804;51.786;19.520;2022-07-29T14:34:59;3.90;;;1.80;;
60935;SDS011;46804;51.786;19.520;2022-07-29T14:38:59;10.73;;;2.05;;
60935;SDS011;46804;51.786;19.520;2022-07-29T14:43:00;4.97;;;1.70;;
60935;SDS011;46804;51.786;19.520;2022-07-29T14:47:02;3.92;;;1.50;;
60935;SDS011;46804;51.786;19.520;2022-07-29T14:51:02;4.05;;;1.60;;
60935;SDS011;46804;51.786;19.520;2022-07-29T14:55:04;5.93;;;1.63;;
60935;SDS011;46804;51.786;19.520;2022-07-29T14:59:05;5.75;;;2.05;;
60935;SDS011;46804;51.786;19.520;2022-07-29T15:03:06;4.07;;;1.80;;
60935;SDS011;46804;51.786;19.520;2022-07-29T15:07:09;1.98;;;1.50;;
60935;SDS011;46804;51.786;19.520;2022-07-29T15:11:10;4.90;;;1.60;;
60935;SDS011;46804;51.786;19.520;2022-07-29T15:15:10;3.13;;;1.58;;
60935;SDS011;46804;51.786;19.520;2022-07-29T15:19:11;3.67;;;1.42;;
60935;SDS011;46804;51.786;19.520;2022-07-29T15:23:12;5.03;;;1.90;;
60935;SDS011;46804;51.786;19.520;2022-07-29T15:27:13;4.28;;;1.60;;
60935;SDS011;46804;51.786;19.520;2022-07-29T15:31:16;4.65;;;1.45;;
60935;SDS011;46804;51.786;19.520;2022-07-29T15:35:18;6.70;;;1.70;;
60935;SDS011;46804;51.786;19.520;2022-07-29T15:39:19;5.70;;;1.40;;
60935;SDS011;46804;51.786;19.520;2022-07-29T15:43:21;3.60;;;1.73;;
60935;SDS011;46804;51.786;19.520;2022-07-29T15:47:22;4.15;;;1.75;;
60935;SDS011;46804;51.786;19.520;2022-07-29T15:51:22;4.22;;;1.73;;
60935;SDS011;46804;51.786;19.520;2022-07-29T15:55:23;5.10;;;1.60;;
60935;SDS011;46804;51.786;19.520;2022-07-29T15:59:23;4.45;;;1.90;;
60935;SDS011;46804;51.786;19.520;2022-07-29T16:03:24;3.35;;;1.55;;
60935;SDS011;46804;51.786;19.520;2022-07-29T16:07:25;7.53;;;2.00;;
60935;SDS011;46804;51.786;19.520;2022-07-29T16:11:25;5.28;;;1.95;;
60935;SDS011;46804;51.786;19.520;2022-07-29T16:15:26;5.15;;;1.50;;
60935;SDS011;46804;51.786;19.520;2022-07-29T16:19:27;5.35;;;1.73;;
60935;SDS011;46804;51.786;19.520;2022-07-29T16:23:27;3.13;;;1.60;;
60935;SDS011;46804;51.786;19.520;2022-07-29T16:27:28;4.05;;;1.67;;
60935;SDS011;46804;51.786;19.520;2022-07-29T16:31:29;2.88;;;1.52;;
60935;SDS011;46804;51.786;19.520;2022-07-29T16:35:29;3.42;;;1.65;;
60935;SDS011;46804;51.786;19.520;2022-07-29T16:39:30;5.35;;;1.70;;
60935;SDS011;46804;51.786;19.520;2022-07-29T16:43:30;5.78;;;1.70;;
60935;SDS011;46804;51.786;19.520;2022-07-29T16:47:31;4.32;;;1.50;;
60935;SDS011;46804;51.786;19.520;2022-07-29T16:51:32;3.97;;;1.45;;
60935;SDS011;46804;51.786;19.520;2022-07-29T16:55:33;2.38;;;1.50;;
60935;SDS011;46804;51.786;19.520;2022-07-29T16:59:33;3.35;;;1.60;;
60935;SDS011;46804;51.786;19.520;2022-07-29T17:03:34;4.90;;;1.40;;
60935;SDS011;46804;51.786;19.520;2022-07-29T17:07:34;3.92;;;1.60;;
60935;SDS011;46804;51.786;19.520;2022-07-29T17:11:36;5.25;;;1.50;;
60935;SDS011;46804;51.786;19.520;2022-07-29T17:15:37;3.15;;;1.63;;
60935;SDS011;46804;51.786;19.520;2022-07-29T17:19:38;3.38;;;1.60;;
60935;SDS011;46804;51.786;19.520;2022-07-29T17:23:38;3.78;;;1.40;;
60935;SDS011;46804;51.786;19.520;2022-07-29T17:27:38;2.33;;;1.50;;
60935;SDS011;46804;51.786;19.520;2022-07-29T17:31:41;5.22;;;1.80;;
60935;SDS011;46804;51.786;19.520;2022-07-29T17:35:42;4.22;;;1.80;;
60935;SDS011;46804;51.786;19.520;2022-07-29T17:40:01;3.80;;;1.40;;
60935;SDS011;46804;51.786;19.520;2022-07-29T17:44:02;3.22;;;1.55;;
60935;SDS011;46804;51.786;19.520;2022-07-29T17:48:03;4.55;;;1.38;;
60935;SDS011;46804;51.786;19.520;2022-07-29T17:52:04;10.05;;;1.50;;
60935;SDS011;46804;51.786;19.520;2022-07-29T17:56:05;5.95;;;1.80;;
60935;SDS011;46804;51.786;19.520;2022-07-29T18:00:07;6.07;;;1.83;;
60935;SDS011;46804;51.786;19.520;2022-07-29T18:04:09;6.55;;;2.33;;
60935;SDS011;46804;51.786;19.520;2022-07-29T18:08:10;5.07;;;1.70;;
60935;SDS011;46804;51.786;19.520;2022-07-29T18:12:11;7.15;;;2.67;;
60935;SDS011;46804;51.786;19.520;2022-07-29T18:16:11;8.52;;;2.00;;
60935;SDS011;46804;51.786;19.520;2022-07-29T18:20:12;11.50;;;1.92;;
60935;SDS011;46804;51.786;19.520;2022-07-29T18:24:13;7.95;;;2.00;;
60935;SDS011;46804;51.786;19.520;2022-07-29T18:28:13;7.55;;;1.98;;
60935;SDS011;46804;51.786;19.520;2022-07-29T18:32:14;7.00;;;1.60;;
60935;SDS011;46804;51.786;19.520;2022-07-29T18:36:14;5.35;;;1.60;;
60935;SDS011;46804;51.786;19.520;2022-07-29T18:40:15;5.25;;;1.63;;
60935;SDS011;46804;51.786;19.520;2022-07-29T18:44:16;4.05;;;1.60;;
60935;SDS011;46804;51.786;19.520;2022-07-29T18:48:17;5.00;;;1.88;;
60935;SDS011;46804;51.786;19.520;2022-07-29T18:52:17;5.03;;;1.85;;
60935;SDS011;46804;51.786;19.520;2022-07-29T18:56:18;7.55;;;2.38;;
60935;SDS011;46804;51.786;19.520;2022-07-29T19:00:19;9.18;;;3.22;;
60935;SDS011;46804;51.786;19.520;2022-07-29T19:04:19;4.65;;;1.98;;
60935;SDS011;46804;51.786;19.520;2022-07-29T19:08:20;3.58;;;1.65;;
60935;SDS011;46804;51.786;19.520;2022-07-29T19:12:20;5.15;;;1.85;;
60935;SDS011;46804;51.786;19.520;2022-07-29T19:16:21;6.22;;;1.90;;
60935;SDS011;46804;51.786;19.520;2022-07-29T19:20:21;6.22;;;1.70;;
60935;SDS011;46804;51.786;19.520;2022-07-29T19:24:22;9.52;;;1.85;;
60935;SDS011;46804;51.786;19.520;2022-07-29T19:28:22;6.90;;;1.73;;
60935;SDS011;46804;51.786;19.520;2022-07-29T19:32:23;7.35;;;1.90;;
60935;SDS011;46804;51.786;19.520;2022-07-29T19:36:24;4.35;;;1.90;;
60935;SDS011;46804;51.786;19.520;2022-07-29T19:40:26;4.93;;;2.20;;
60935;SDS011;46804;51.786;19.520;2022-07-29T19:44:28;5.45;;;1.75;;
60935;SDS011;46804;51.786;19.520;2022-07-29T19:48:28;4.50;;;1.70;;
60935;SDS011;46804;51.786;19.520;2022-07-29T19:52:29;6.75;;;1.88;;
60935;SDS011;46804;51.786;19.520;2022-07-29T19:56:29;6.60;;;1.88;;
60935;SDS011;46804;51.786;19.520;2022-07-29T20:00:31;4.20;;;1.80;;
60935;SDS011;46804;51.786;19.520;2022-07-29T20:04:31;5.63;;;2.85;;
60935;SDS011;46804;51.786;19.520;2022-07-29T20:08:32;7.38;;;2.53;;
60935;SDS011;46804;51.786;19.520;2022-07-29T20:12:32;16.40;;;2.30;;
60935;SDS011;46804;51.786;19.520;2022-07-29T20:16:33;4.50;;;1.92;;
60935;SDS011;46804;51.786;19.520;2022-07-29T20:20:34;4.47;;;1.95;;
60935;SDS011;46804;51.786;19.520;2022-07-29T20:24:34;4.32;;;2.00;;
60935;SDS011;46804;51.786;19.520;2022-07-29T20:28:35;7.63;;;2.40;;
60935;SDS011;46804;51.786;19.520;2022-07-29T20:32:37;6.13;;;2.40;;
60935;SDS011;46804;51.786;19.520;2022-07-29T20:36:37;8.57;;;1.90;;
60935;SDS011;46804;51.786;19.520;2022-07-29T20:40:38;3.63;;;2.15;;
60935;SDS011;46804;51.786;19.520;2022-07-29T20:44:39;5.07;;;2.13;;
60935;SDS011;46804;51.786;19.520;2022-07-29T20:48:39;8.50;;;2.30;;
60935;SDS011;46804;51.786;19.520;2022-07-29T20:52:40;5.97;;;2.00;;
60935;SDS011;46804;51.786;19.520;2022-07-29T20:56:42;6.32;;;2.30;;
60935;SDS011;46804;51.786;19.520;2022-07-29T21:00:42;5.47;;;1.98;;
60935;SDS011;46804;51.786;19.520;2022-07-29T21:04:43;4.03;;;2.13;;
60935;SDS011;46804;51.786;19.520;2022-07-29T21:08:44;5.95;;;2.05;;
60935;SDS011;46804;51.786;19.520;2022-07-29T21:12:44;5.25;;;2.00;;
60935;SDS011;46804;51.786;19.520;2022-07-29T21:16:45;4.43;;;2.05;;
60935;SDS011;46804;51.786;19.520;2022-07-29T21:20:46;3.67;;;1.80;;
60935;SDS011;46804;51.786;19.520;2022-07-29T21:24:47;3.78;;;1.80;;
60935;SDS011;46804;51.786;19.520;2022-07-29T21:28:48;4.63;;;1.98;;
60935;SDS011;46804;51.786;19.520;2022-07-29T21:32:48;10.57;;;2.03;;
60935;SDS011;46804;51.786;19.520;2022-07-29T21:36:49;6.65;;;1.80;;
60935;SDS011;46804;51.786;19.520;2022-07-29T21:40:50;4.68;;;2.10;;
60935;SDS011;46804;51.786;19.520;2022-07-29T21:44:51;10.63;;;2.47;;
60935;SDS011;46804;51.786;19.520;2022-07-29T21:48:51;3.38;;;1.80;;
60935;SDS011;46804;51.786;19.520;2022-07-29T21:52:52;3.58;;;1.60;;
60935;SDS011;46804;51.786;19.520;2022-07-29T21:56:53;6.13;;;1.95;;
60935;SDS011;46804;51.786;19.520;2022-07-29T22:00:53;5.38;;;1.50;;
60935;SDS011;46804;51.786;19.520;2022-07-29T22:04:53;4.05;;;1.83;;
60935;SDS011;46804;51.786;19.520;2022-07-29T22:08:54;5.32;;;1.55;;
60935;SDS011;46804;51.786;19.520;2022-07-29T22:12:55;2.78;;;1.45;;
60935;SDS011;46804;51.786;19.520;2022-07-29T22:16:57;3.20;;;1.42;;
60935;SDS011;46804;51.786;19.520;2022-07-29T22:20:58;3.22;;;1.60;;
60935;SDS011;46804;51.786;19.520;2022-07-29T22:24:58;4.40;;;1.70;;
60935;SDS011;46804;51.786;19.520;2022-07-29T22:28:59;5.28;;;1.58;;
60935;SDS011;46804;51.786;19.520;2022-07-29T22:33:00;3.83;;;1.55;;
60935;SDS011;46804;51.786;19.520;2022-07-29T22:37:00;2.00;;;1.67;;
60935;SDS011;46804;51.786;19.520;2022-07-29T22:41:01;4.47;;;1.85;;
60935;SDS011;46804;51.786;19.520;2022-07-29T22:45:02;4.28;;;1.70;;
60935;SDS011;46804;51.786;19.520;2022-07-29T22:49:02;1.48;;;1.30;;
60935;SDS011;46804;51.786;19.520;2022-07-29T22:53:04;2.80;;;1.60;;
60935;SDS011;46804;51.786;19.520;2022-07-29T22:57:05;3.13;;;1.60;;
60935;SDS011;46804;51.786;19.520;2022-07-29T23:01:05;4.60;;;1.60;;
60935;SDS011;46804;51.786;19.520;2022-07-29T23:05:06;6.93;;;1.55;;
60935;SDS011;46804;51.786;19.520;2022-07-29T23:09:08;4.32;;;1.63;;
60935;SDS011;46804;51.786;19.520;2022-07-29T23:13:08;3.17;;;1.75;;
60935;SDS011;46804;51.786;19.520;2022-07-29T23:17:09;2.55;;;1.60;;
60935;SDS011;46804;51.786;19.520;2022-07-29T23:21:10;3.05;;;1.67;;
60935;SDS011;46804;51.786;19.520;2022-07-29T23:25:10;2.58;;;1.50;;
60935;SDS011;46804;51.786;19.520;2022-07-29T23:29:11;5.20;;;1.63;;
60935;SDS011;46804;51.786;19.520;2022-07-29T23:33:11;2.92;;;1.60;;
60935;SDS011;46804;51.786;19.520;2022-07-29T23:37:12;2.97;;;1.60;;
60935;SDS011;46804;51.786;19.520;2022-07-29T23:41:13;3.45;;;1.77;;
60935;SDS011;46804;51.786;19.520;2022-07-29T23:45:14;4.80;;;1.60;;
60935;SDS011;46804;51.786;19.520;2022-07-29T23:49:14;3.58;;;1.85;;
60935;SDS011;46804;51.786;19.520;2022-07-29T23:53:15;5.47;;;1.75;;
60935;SDS011;46804;51.786;19.520;2022-07-29T23:57:16;3.88;;;1.80;;
